Historyczne dane pomiarowe

Dodano dane terminowe – wersja testowa.

Dane z okresu 1951-2019

Wersja bazy: 1.34 [2019-03-16, lista zmian], aktualizacja planowana na 2019-04-15

Dane meteo z obszaru Polski uzyskane na podstawie danych udostępnionych przez Instytut Meteorologii i Gospodarki Wodnej – Państwowy Instytut Badawczy.

 

Wybierz Datę:    

       

TemperaturaWilgotnośćWiatrCiśnienieOpadyŚniegCzas trwania zjawisk
 Stacja t tx tn tng RH VA  wxwx mslp ppp RRR   cm mm wxwxwxwxwxwxwx
1994-08-14 11.7 16.7 10.1 7.1-- 4.7 4.0---- 5.6------------
1994-08-13 15.7 19.9 13.1 12.1-- 5.7 4.0---- 1.3------------
1994-08-12 16.4 23.3 10.6 7.3-- 7.0 2.0---- 14.7------------
1994-08-11 20.9 27.8 12.7 8.6-- 8.0 4.3---- 0.0------------
1994-08-10 22.0 27.8 12.8 8.6-- 5.7 1.7---- 0.0------------
1994-08-09 21.1 26.3 15.5 13.5-- 7.0 1.0---- 0.0------------
1994-08-08 21.9 26.6 17.4 15.3-- 6.0 2.0---- 0.0------------
1994-08-07 22.7 28.7 15.4 10.2-- 4.7 1.7---- 0.0------------
1994-08-06 25.0 31.1 18.4 13.2-- 4.3 1.7---- 0.0------------
1994-08-05 25.9 32.6 14.0 13.3-- 5.3 2.7---- 0.0------------
1994-08-04 22.4 27.8 13.0 9.1-- 3.7 2.0---- 0.0------------
1994-08-03 23.2 31.4 18.8 17.3-- 5.0 2.7---- 0.0------------
1994-08-02 27.6 31.2 19.4 13.6-- 7.0 5.7---- 0.0------------
1994-08-01 28.4 36.0 20.5 15.1-- 5.7 2.7---- 0.0------------
1994-07-31 29.3 37.0 22.4 19.3-- 6.0 2.3---- 0.0------------
1994-07-30 27.6 35.5 17.0 16.6-- 3.7 2.7---- 0.0------------
1994-07-29 26.0 36.0 13.5 13.3-- 5.0 3.3---- 0.0------------
1994-07-28 26.6 33.9 19.0 15.7-- 4.7 2.7---- 0.0------------
1994-07-27 26.6 34.8 17.8 14.4-- 6.3 2.0---- 0.0------------
1994-07-26 26.3 34.3 17.0 15.7-- 4.0 2.3---- 0.0------------
1994-07-25 25.1 33.1 16.0 11.6-- 3.7 2.3---- 0.0------------
1994-07-24 24.2 31.3 15.7 11.7-- 1.7 1.7---- 0.0------------
1994-07-23 23.5 30.0 15.0 9.3-- 2.0 1.0---- 0.0------------
1994-07-22 22.8 28.3 14.0 9.9-- 3.7 2.0---- 0.0------------
1994-07-21 20.9 28.5 11.6 7.7-- 1.3 2.3---- 0.0------------
1994-07-20 19.1 24.3 10.5 7.3-- 2.7 2.7---- 0.0------------
1994-07-19 18.3 22.8 13.5 11.5-- 3.3 2.3---- 0.0------------
1994-07-18 19.4 24.3 13.0 11.0-- 5.0 1.7---- 0.0------------
1994-07-17 20.7 25.4 14.5 11.7-- 6.7 1.0---- 0.0------------
1994-07-16 22.4 27.2 18.0 17.2-- 6.0 2.7---- 0.0------------
1994-07-15 25.0 31.0 19.0 15.1-- 5.3 4.3---- 0.0------------
1994-07-14 24.1 31.3 16.0 12.4-- 5.7 3.3---- 0.0------------
1994-07-13 24.0 30.3 17.4 14.6-- 3.3 2.3---- 0.0------------
1994-07-12 22.8 28.8 13.5 13.1-- 2.0 3.3---- 0.0------------
1994-07-11 22.0 27.9 13.5 10.5-- 1.7 2.3---- 0.0------------
1994-07-10 19.9 26.3 12.6 11.2-- 5.7 1.7---- 0.0------------
1994-07-09 16.9 22.9 13.0 12.7-- 7.7 3.0---- 0.0------------
1994-07-08 14.2 21.5 12.8 12.2-- 8.0 1.7---- 38.3------------
1994-07-07 18.2 24.3 10.0 7.4-- 5.0 2.0---- 24.5------------
1994-07-06 18.7 24.3 13.5 9.6-- 3.7 2.0---- 0.0------------
1994-07-05 18.8 24.5 11.5 9.9-- 4.3 2.3---- 0.0------------
1994-07-04 21.6 27.2 14.3 11.3-- 1.7 2.3---- 0.0------------
1994-07-03 20.5 25.8 12.0 9.2-- 2.0 2.0---- 0.0------------
1994-07-02 17.4 23.8 9.5 6.7-- 2.0 2.3---- 0.0------------
1994-07-01 17.7 23.2 8.5 6.2-- 3.7 1.7---- 0.0------------
1994-06-30 18.8 28.2 16.8 16.1-- 6.0 2.7---- 0.0------------
1994-06-29 25.2 32.8 17.0 13.4-- 1.7 3.7---- 15.1------------
1994-06-28 22.6 28.3 12.0 9.7-- 2.0 2.7---- 0.0------------
1994-06-27 22.9 28.8 15.3 12.2-- 4.0 3.0---- 0.0------------
1994-06-26 20.2 30.8 10.9 6.6-- 2.7 1.3---- 0.0------------
1994-06-25 15.9 23.9 4.2 3.8-- 1.3 1.3---- 0.0------------
1994-06-24 14.0 20.5 6.5 4.2-- 4.0 4.3---- 0.0------------
1994-06-23 15.4 24.5 10.5 9.6-- 7.0 5.0---- 0.0------------
1994-06-22 20.4 24.6 16.1 12.3-- 5.3 2.0---- 0.0------------
1994-06-21 14.6 22.3 5.3 2.2-- 4.3 2.0---- 0.0------------
1994-06-20 14.8 18.8 11.3 10.0-- 5.3 4.7---- 0.0------------
1994-06-19 14.6 21.4 10.6 10.2-- 7.7 2.7---- 0.0------------
1994-06-18 11.4 17.0 3.5 0.7-- 7.3 3.0---- 9.7------------
1994-06-17 10.4 14.3 5.0 2.8-- 4.0 4.3---- 0.0------------
1994-06-16 12.0 15.3 9.7 8.6-- 7.3 4.0---- 0.0------------
317.6 ms

 

Źródłem pochodzenia danych jest Instytut Meteorologii i Gospodarki Wodnej – Państwowy Instytut Badawczy. Dane Instytutu Meteorologii i Gospodarki Wodnej – Państwowego Instytutu Badawczego zostały przetworzone.

Dane źródłowe można odnaleźć na stronie https://dane.imgw.pl